CYYJ/YYJ METAR and TAF weather

Enter ICAO airport designator
Station Type Date Time Source
CYYJ METAR 2019/05/20 10:00 UTC NOAA

CYYJ 201000Z 28006KT 20SM BKN130 14/08 A2971 RMK AC7 SLP062 DENSITY ALT 300FT


Station Type Date Time Source
CYYJ Decoded METAR 2019/05/20 10:00 UTC NOAA

Victoria Int. Airport, B. C., Canada (CYYJ) 48-39N 123-26W 19M
May 20, 2019 - 06:00 AM EDT / 2019.05.20 1000 UTC
Wind: from the W (280 degrees) at 7 MPH (6 KT):0
Visibility: 20 mile(s):0
Sky conditions: mostly cloudy
Temperature: 57 F (14 C)
Dew Point: 46 F (8 C)
Relative Humidity: 67%
Pressure (altimeter): 29.71 in. Hg (1006 hPa)
ob: CYYJ 201000Z 28006KT 20SM BKN130 14/08 A2971 RMK AC7 SLP062 DENSITY ALT 300FT
cycle: 10

Station Type Date Time Source
CYYJ TAF 2019/05/20 06:42 UTC NOAA

TAF CYYJ 200538Z 2006/2106 27008KT P6SM FEW160 FEW250
FM201200 25005KT P6SM FEW030 BKN070
FM201700 14010KT P6SM -SHRA FEW020 OVC040
RMK NXT FCST BY 201200Z

Example: see airport list